createdAt,value
2023-04-06T00:00:11.188Z,6.68
2023-04-06T00:02:38.037Z,6.84
2023-04-06T00:05:05.057Z,6.91
2023-04-06T00:07:31.754Z,6.95
2023-04-06T00:09:58.381Z,6.90
2023-04-06T00:12:25.290Z,6.68
2023-04-06T00:14:51.942Z,6.87
2023-04-06T00:17:18.802Z,6.77
2023-04-06T00:19:45.502Z,6.70
2023-04-06T00:22:12.344Z,6.37
2023-04-06T00:24:39.073Z,6.48
2023-04-06T00:27:05.723Z,6.42
2023-04-06T00:29:32.386Z,6.16
2023-04-06T00:31:59.083Z,6.41
2023-04-06T00:34:25.826Z,6.48
2023-04-06T00:36:52.504Z,6.16
2023-04-06T00:39:20.948Z,6.19
2023-04-06T00:41:52.322Z,6.23
2023-04-06T00:44:19.971Z,6.33
2023-04-06T00:46:46.735Z,6.25
2023-04-06T00:49:13.439Z,6.47
2023-04-06T00:51:40.849Z,6.62
2023-04-06T00:54:07.999Z,6.21
2023-04-06T00:56:36.440Z,5.81
2023-04-06T00:59:03.523Z,5.60
2023-04-06T01:01:33.290Z,5.72
2023-04-06T01:04:04.695Z,5.74
2023-04-06T01:06:38.241Z,5.56
2023-04-06T01:09:04.904Z,5.46
2023-04-06T01:11:32.358Z,5.34
2023-04-06T01:13:59.764Z,5.29
2023-04-06T01:16:43.131Z,5.29
2023-04-06T01:19:14.111Z,5.19
2023-04-06T01:21:54.160Z,5.59
2023-04-06T01:24:29.950Z,5.56
2023-04-06T01:27:03.853Z,5.53
2023-04-06T01:29:52.849Z,5.41
2023-04-06T01:32:41.993Z,5.27
2023-04-06T01:35:11.273Z,5.23
2023-04-06T01:37:45.672Z,5.30
2023-04-06T01:40:17.315Z,5.59
2023-04-06T01:42:48.736Z,5.79
2023-04-06T01:45:22.816Z,5.70
2023-04-06T01:47:51.351Z,5.61
2023-04-06T01:50:19.000Z,5.36
2023-04-06T01:52:47.439Z,5.43
2023-04-06T01:55:14.434Z,5.25
2023-04-06T01:58:06.646Z,5.34
2023-04-06T02:00:38.151Z,5.51
2023-04-06T02:03:05.015Z,5.19
2023-04-06T02:05:38.600Z,5.03
2023-04-06T02:08:15.957Z,5.14
2023-04-06T02:10:42.676Z,5.17
2023-04-06T02:13:18.936Z,5.03
2023-04-06T02:15:49.685Z,4.74
2023-04-06T02:18:18.580Z,4.58
2023-04-06T02:20:46.606Z,4.94
2023-04-06T02:23:13.990Z,4.78
2023-04-06T02:25:41.155Z,4.61
2023-04-06T02:28:08.359Z,4.77
2023-04-06T02:30:35.940Z,4.91
2023-04-06T02:33:03.404Z,4.96
2023-04-06T02:35:38.217Z,5.12
2023-04-06T02:38:05.008Z,4.74
2023-04-06T02:40:31.689Z,4.44
2023-04-06T02:43:05.299Z,4.34
2023-04-06T02:45:32.512Z,4.13
2023-04-06T02:48:01.509Z,4.07
2023-04-06T02:50:29.971Z,4.19
2023-04-06T02:53:01.749Z,4.43
2023-04-06T02:55:28.479Z,4.73
2023-04-06T02:57:55.354Z,4.40
2023-04-06T03:00:27.382Z,4.22
2023-04-06T03:02:54.193Z,4.01
2023-04-06T03:05:21.645Z,4.01
2023-04-06T03:07:48.926Z,3.87
2023-04-06T03:10:24.639Z,3.94
2023-04-06T03:12:51.306Z,3.91
2023-04-06T03:15:22.706Z,3.85
2023-04-06T03:17:54.738Z,3.74
2023-04-06T03:20:36.106Z,3.74
2023-04-06T03:23:03.018Z,3.91
2023-04-06T03:25:35.237Z,3.88
2023-04-06T03:28:05.010Z,3.80
2023-04-06T03:30:35.578Z,3.82
2023-04-06T03:33:02.542Z,4.17
2023-04-06T03:35:33.894Z,4.31
2023-04-06T03:38:00.662Z,4.26
2023-04-06T03:40:28.224Z,4.31
2023-04-06T03:42:54.872Z,4.40
2023-04-06T03:45:22.125Z,4.59
2023-04-06T03:47:51.087Z,4.59
2023-04-06T03:50:19.204Z,4.78
2023-04-06T03:52:46.011Z,4.70
2023-04-06T03:55:12.713Z,4.63
2023-04-06T03:57:39.521Z,4.80
2023-04-06T04:00:07.025Z,4.68
2023-04-06T04:02:40.174Z,4.50
2023-04-06T04:05:07.459Z,4.38
2023-04-06T04:07:34.081Z,4.53
2023-04-06T04:10:00.974Z,4.62
2023-04-06T04:12:28.086Z,4.58
2023-04-06T04:14:54.775Z,4.64
2023-04-06T04:17:23.067Z,4.57
2023-04-06T04:19:49.719Z,4.71
2023-04-06T04:22:16.658Z,4.69
2023-04-06T04:24:44.222Z,4.65
2023-04-06T04:27:11.033Z,4.55
2023-04-06T04:29:39.160Z,4.50
2023-04-06T04:32:09.235Z,4.63
2023-04-06T04:34:36.581Z,4.69
2023-04-06T04:37:05.961Z,4.64
2023-04-06T04:39:44.225Z,4.56
2023-04-06T04:42:11.503Z,4.54
2023-04-06T04:44:44.121Z,4.38
2023-04-06T04:47:11.253Z,4.46
2023-04-06T04:49:43.662Z,4.59
2023-04-06T04:52:12.302Z,4.53
2023-04-06T04:54:51.020Z,4.47
2023-04-06T04:57:24.751Z,4.32
2023-04-06T04:59:51.864Z,4.20
2023-04-06T05:02:19.988Z,4.22
2023-04-06T05:05:12.652Z,4.20
2023-04-06T05:07:41.125Z,4.25
2023-04-06T05:10:12.243Z,4.37
2023-04-06T05:12:49.452Z,4.49
2023-04-06T05:15:16.199Z,4.65
2023-04-06T05:17:43.054Z,4.81
2023-04-06T05:20:13.630Z,5.05
2023-04-06T05:22:46.783Z,4.88
2023-04-06T05:25:14.550Z,5.13
2023-04-06T05:27:41.903Z,5.19
2023-04-06T05:30:20.379Z,5.07
2023-04-06T05:32:48.951Z,4.82
2023-04-06T05:35:18.054Z,4.77
2023-04-06T05:37:48.135Z,4.72
2023-04-06T05:40:14.897Z,4.86
2023-04-06T05:42:43.438Z,5.07
2023-04-06T05:45:12.243Z,5.21
2023-04-06T05:47:40.522Z,5.40
2023-04-06T05:50:19.422Z,5.38
2023-04-06T05:52:47.353Z,5.38
2023-04-06T05:55:17.108Z,5.58
2023-04-06T05:57:47.940Z,5.42
2023-04-06T06:00:17.854Z,5.51
2023-04-06T06:02:53.775Z,5.69
2023-04-06T06:05:24.380Z,5.78
2023-04-06T06:07:51.354Z,5.81
2023-04-06T06:10:18.010Z,5.93
2023-04-06T06:12:44.895Z,5.90
2023-04-06T06:15:12.633Z,5.70
2023-04-06T06:17:43.872Z,5.90
2023-04-06T06:20:11.678Z,5.81
2023-04-06T06:22:39.049Z,5.57
2023-04-06T06:25:07.684Z,5.95
2023-04-06T06:27:34.409Z,5.73
2023-04-06T06:30:01.142Z,5.90
2023-04-06T06:32:31.371Z,6.20
2023-04-06T06:34:59.203Z,6.37
2023-04-06T06:37:25.880Z,6.35
2023-04-06T06:39:52.783Z,6.47
2023-04-06T06:42:21.313Z,6.58
2023-04-06T06:45:15.231Z,6.59
2023-04-06T06:47:42.152Z,6.81
2023-04-06T06:50:11.321Z,7.07
2023-04-06T06:52:38.041Z,7.21
2023-04-06T06:55:04.922Z,7.31
2023-04-06T06:57:31.584Z,7.08
2023-04-06T06:59:58.279Z,6.79
2023-04-06T07:02:25.077Z,7.25
2023-04-06T07:04:51.842Z,7.54
2023-04-06T07:07:18.648Z,7.52
2023-04-06T07:09:45.424Z,7.64
2023-04-06T07:12:12.096Z,7.85
2023-04-06T07:14:38.747Z,8.09
2023-04-06T07:17:05.421Z,8.35
2023-04-06T07:19:32.329Z,8.56
2023-04-06T07:21:59.351Z,8.13
2023-04-06T07:24:27.465Z,8.36
2023-04-06T07:26:54.149Z,8.35
2023-04-06T07:29:20.796Z,8.32
2023-04-06T07:31:47.897Z,8.67
2023-04-06T07:34:16.221Z,8.10
2023-04-06T07:36:42.959Z,7.76
2023-04-06T07:39:10.191Z,7.67
2023-04-06T07:41:37.009Z,7.63
2023-04-06T07:44:04.790Z,8.53
2023-04-06T07:46:31.968Z,8.31
2023-04-06T07:49:04.305Z,8.73
2023-04-06T07:51:37.200Z,9.12
2023-04-06T07:54:04.295Z,9.09
2023-04-06T07:56:31.116Z,9.15
2023-04-06T07:58:58.985Z,9.63
2023-04-06T08:01:25.645Z,9.87
2023-04-06T08:03:52.347Z,9.18
2023-04-06T08:06:19.234Z,9.68
2023-04-06T08:08:46.023Z,10.02
2023-04-06T08:11:12.712Z,9.51
2023-04-06T08:13:39.401Z,8.33
2023-04-06T08:16:06.350Z,8.43
2023-04-06T08:18:33.097Z,9.26
2023-04-06T08:20:59.715Z,9.62
2023-04-06T08:23:26.368Z,9.88
2023-04-06T08:25:55.149Z,10.28
2023-04-06T08:28:22.359Z,9.62
2023-04-06T08:30:49.190Z,9.01
2023-04-06T08:33:16.409Z,9.64
2023-04-06T08:35:43.079Z,9.48
2023-04-06T08:38:09.828Z,9.92
2023-04-06T08:40:40.247Z,10.49
2023-04-06T08:43:13.629Z,10.90
2023-04-06T08:45:42.006Z,11.02
2023-04-06T08:48:09.997Z,10.74
2023-04-06T08:50:38.890Z,11.04
2023-04-06T08:53:06.949Z,10.95
2023-04-06T08:55:33.803Z,11.38
2023-04-06T08:58:01.382Z,11.30
2023-04-06T09:00:29.220Z,10.76
2023-04-06T09:02:58.288Z,11.07
2023-04-06T09:05:26.611Z,11.19
2023-04-06T09:07:53.728Z,11.74
2023-04-06T09:10:21.572Z,11.91
2023-04-06T09:12:48.410Z,11.95
2023-04-06T09:15:24.551Z,11.88
2023-04-06T09:17:54.829Z,10.60
2023-04-06T09:20:29.292Z,10.72
2023-04-06T09:22:56.622Z,11.37
2023-04-06T09:25:26.455Z,12.01
2023-04-06T09:28:01.127Z,12.33
2023-04-06T09:30:28.058Z,11.43
2023-04-06T09:33:00.256Z,12.09
2023-04-06T09:35:27.932Z,12.03
2023-04-06T09:37:54.886Z,12.11
2023-04-06T09:40:23.074Z,12.10
2023-04-06T09:42:53.931Z,12.34
2023-04-06T09:45:21.794Z,12.63
2023-04-06T09:47:49.293Z,12.63
2023-04-06T09:50:17.403Z,12.92
2023-04-06T09:52:50.378Z,12.74
2023-04-06T09:55:43.656Z,12.75
2023-04-06T09:58:27.021Z,12.88
2023-04-06T10:01:16.532Z,12.09
2023-04-06T10:03:56.047Z,11.60
2023-04-06T10:06:24.198Z,11.93
2023-04-06T10:08:56.171Z,12.61
2023-04-06T10:11:23.339Z,12.97
2023-04-06T10:13:51.041Z,12.55
2023-04-06T10:16:18.460Z,12.76
2023-04-06T10:18:50.261Z,11.58
2023-04-06T10:21:24.565Z,12.24
2023-04-06T10:24:02.732Z,12.71
2023-04-06T10:26:29.415Z,12.71
2023-04-06T10:28:56.261Z,13.10
2023-04-06T10:31:28.421Z,12.86
2023-04-06T10:33:56.706Z,12.76
2023-04-06T10:36:27.270Z,12.32
2023-04-06T10:39:01.711Z,12.13
2023-04-06T10:41:46.624Z,12.47
2023-04-06T10:44:23.909Z,12.75
2023-04-06T10:46:57.583Z,13.25
2023-04-06T10:49:27.446Z,13.33
2023-04-06T10:51:55.648Z,13.02
2023-04-06T10:54:24.594Z,12.66
2023-04-06T10:56:51.259Z,13.32
2023-04-06T10:59:22.586Z,12.90
2023-04-06T11:01:49.719Z,12.48
2023-04-06T11:04:21.067Z,12.57
2023-04-06T11:06:49.673Z,12.78
2023-04-06T11:09:30.299Z,12.93
2023-04-06T11:11:57.943Z,13.29
2023-04-06T11:14:24.875Z,13.29
2023-04-06T11:16:51.929Z,13.01
2023-04-06T11:19:19.026Z,13.31
2023-04-06T11:21:48.553Z,13.08
2023-04-06T11:24:20.937Z,13.21
2023-04-06T11:26:51.829Z,13.22
2023-04-06T11:29:23.149Z,12.71
2023-04-06T11:31:52.015Z,12.80
2023-04-06T11:34:23.737Z,12.70
2023-04-06T11:37:06.916Z,12.93
2023-04-06T11:39:42.912Z,13.69
2023-04-06T11:42:10.138Z,13.59
2023-04-06T11:44:43.424Z,13.83
2023-04-06T11:47:11.955Z,13.98
2023-04-06T11:49:40.785Z,13.70
2023-04-06T11:52:28.220Z,13.82
2023-04-06T11:54:57.752Z,13.59
2023-04-06T11:57:28.988Z,13.79
2023-04-06T11:59:56.306Z,13.73
2023-04-06T12:02:23.174Z,14.01
2023-04-06T12:04:50.066Z,14.28
2023-04-06T12:07:16.848Z,14.22
2023-04-06T12:09:44.129Z,14.37
2023-04-06T12:12:11.006Z,14.14
2023-04-06T12:14:37.767Z,14.21
2023-04-06T12:17:04.434Z,14.24
2023-04-06T12:19:31.238Z,14.19
2023-04-06T12:21:59.089Z,13.94
2023-04-06T12:24:25.874Z,14.08
2023-04-06T12:26:59.656Z,14.15
2023-04-06T12:29:33.736Z,13.73
2023-04-06T12:32:02.348Z,13.57
2023-04-06T12:34:29.238Z,13.52
2023-04-06T12:36:56.718Z,13.90
2023-04-06T12:39:23.670Z,13.96
2023-04-06T12:41:50.329Z,13.89
2023-04-06T12:44:16.945Z,14.12
2023-04-06T12:46:44.402Z,14.38
2023-04-06T12:49:11.282Z,14.09
2023-04-06T12:51:37.945Z,14.14
2023-04-06T12:54:04.686Z,14.30
2023-04-06T12:56:31.985Z,14.30
2023-04-06T12:58:58.755Z,14.32
2023-04-06T13:01:26.676Z,14.21
2023-04-06T13:03:53.403Z,14.27
2023-04-06T13:06:20.166Z,14.16
2023-04-06T13:08:48.281Z,14.31
2023-04-06T13:11:15.595Z,14.40
2023-04-06T13:13:42.424Z,14.62
2023-04-06T13:16:09.902Z,14.54
2023-04-06T13:18:39.525Z,14.57
2023-04-06T13:21:08.040Z,14.62
2023-04-06T13:23:36.293Z,14.52
2023-04-06T13:26:05.834Z,14.17
2023-04-06T13:28:34.107Z,14.20
2023-04-06T13:31:02.237Z,14.32
2023-04-06T13:33:29.567Z,14.45
2023-04-06T13:35:56.544Z,14.50
2023-04-06T13:38:25.199Z,14.62
2023-04-06T13:40:52.447Z,14.43
2023-04-06T13:43:22.308Z,14.29
2023-04-06T13:45:55.688Z,14.32
2023-04-06T13:48:22.572Z,14.55
2023-04-06T13:50:49.462Z,14.62
2023-04-06T13:53:17.247Z,14.69
2023-04-06T13:55:44.153Z,14.52
2023-04-06T13:58:10.859Z,14.64
2023-04-06T14:00:37.983Z,14.47
2023-04-06T14:03:05.012Z,14.81
2023-04-06T14:05:33.194Z,14.62
2023-04-06T14:07:59.860Z,14.61
2023-04-06T14:10:28.429Z,14.56
2023-04-06T14:12:55.464Z,14.85
2023-04-06T14:15:23.442Z,14.33
2023-04-06T14:17:50.314Z,14.68
2023-04-06T14:20:17.037Z,14.59
2023-04-06T14:22:43.998Z,14.65
2023-04-06T14:25:12.163Z,14.52
2023-04-06T14:27:39.645Z,14.59
2023-04-06T14:30:07.119Z,14.25
2023-04-06T14:32:33.918Z,14.56
2023-04-06T14:35:00.547Z,14.51
2023-04-06T14:37:27.276Z,14.54
2023-04-06T14:39:53.961Z,14.33
2023-04-06T14:42:20.708Z,14.42
2023-04-06T14:44:47.494Z,14.18
2023-04-06T14:47:16.691Z,14.32
2023-04-06T14:49:43.363Z,14.37
2023-04-06T14:52:10.041Z,14.43
2023-04-06T14:54:36.624Z,14.62
2023-04-06T14:57:03.350Z,14.63
2023-04-06T14:59:30.229Z,14.59
2023-04-06T15:01:57.316Z,14.60
2023-04-06T15:04:24.147Z,14.39
2023-04-06T15:06:51.051Z,14.55
2023-04-06T15:09:17.656Z,14.67
2023-04-06T15:11:44.274Z,14.61
2023-04-06T15:14:11.122Z,14.32
2023-04-06T15:16:37.886Z,14.14
2023-04-06T15:19:04.530Z,14.05
2023-04-06T15:21:32.030Z,14.24
2023-04-06T15:23:58.809Z,14.26
2023-04-06T15:26:27.220Z,14.47
2023-04-06T15:28:53.851Z,14.52
2023-04-06T15:31:36.850Z,14.11
2023-04-06T15:34:08.634Z,13.85
2023-04-06T15:36:36.214Z,13.93
2023-04-06T15:39:04.212Z,14.07
2023-04-06T15:41:31.769Z,14.02
2023-04-06T15:43:58.768Z,13.91
2023-04-06T15:46:27.624Z,13.80
2023-04-06T15:48:54.683Z,13.90
2023-04-06T15:51:21.532Z,13.86
2023-04-06T15:53:48.287Z,13.75
2023-04-06T15:56:14.953Z,13.61
2023-04-06T15:58:42.208Z,13.32
2023-04-06T16:01:15.993Z,13.45
2023-04-06T16:03:43.677Z,13.56
2023-04-06T16:06:10.901Z,13.43
2023-04-06T16:08:39.825Z,13.41
2023-04-06T16:11:06.853Z,13.36
2023-04-06T16:13:33.996Z,13.39
2023-04-06T16:16:01.075Z,13.33
2023-04-06T16:18:27.928Z,13.35
2023-04-06T16:20:54.657Z,13.21
2023-04-06T16:23:21.610Z,13.28
2023-04-06T16:25:48.492Z,13.43
2023-04-06T16:28:15.205Z,13.21
2023-04-06T16:30:44.722Z,13.10
2023-04-06T16:33:13.664Z,13.18
2023-04-06T16:35:47.267Z,13.10
2023-04-06T16:38:15.267Z,13.08
2023-04-06T16:40:42.296Z,13.09
2023-04-06T16:43:09.949Z,12.97
2023-04-06T16:45:37.882Z,13.02
2023-04-06T16:48:04.903Z,13.11
2023-04-06T16:50:31.612Z,12.95
2023-04-06T16:52:58.559Z,12.97
2023-04-06T16:55:25.351Z,13.42
2023-04-06T16:57:55.814Z,13.34
2023-04-06T17:00:22.934Z,13.20
2023-04-06T17:02:49.858Z,13.34
2023-04-06T17:05:20.684Z,13.43
2023-04-06T17:07:47.302Z,13.40
2023-04-06T17:10:13.966Z,13.32
2023-04-06T17:12:40.832Z,13.28
2023-04-06T17:15:08.248Z,13.12
2023-04-06T17:17:34.836Z,13.06
2023-04-06T17:20:01.646Z,13.05
2023-04-06T17:22:28.395Z,13.02
2023-04-06T17:24:55.466Z,13.24
2023-04-06T17:27:23.564Z,13.08
2023-04-06T17:29:50.530Z,12.86
2023-04-06T17:32:19.173Z,12.93
2023-04-06T17:34:45.842Z,13.25
2023-04-06T17:37:12.436Z,12.76
2023-04-06T17:39:39.131Z,12.76
2023-04-06T17:42:05.965Z,12.61
2023-04-06T17:44:33.396Z,12.62
2023-04-06T17:47:00.362Z,12.58
2023-04-06T17:49:27.020Z,12.42
2023-04-06T17:51:53.705Z,12.65
2023-04-06T17:54:20.526Z,12.62
2023-04-06T17:56:49.087Z,12.69
2023-04-06T17:59:16.067Z,12.49
2023-04-06T18:01:42.835Z,12.07
2023-04-06T18:04:09.602Z,11.90
2023-04-06T18:06:36.943Z,11.72
2023-04-06T18:09:03.810Z,11.79
2023-04-06T18:11:32.671Z,11.55
2023-04-06T18:13:59.680Z,11.63
2023-04-06T18:16:26.845Z,11.62
2023-04-06T18:18:55.555Z,11.65
2023-04-06T18:21:22.295Z,11.42
2023-04-06T18:23:49.506Z,11.23
2023-04-06T18:26:18.612Z,10.97
2023-04-06T18:28:46.881Z,11.09
2023-04-06T18:31:14.271Z,11.15
2023-04-06T18:33:41.068Z,11.11
2023-04-06T18:36:08.026Z,11.08
2023-04-06T18:38:34.670Z,10.96
2023-04-06T18:41:01.378Z,10.93
2023-04-06T18:43:28.503Z,10.94
2023-04-06T18:45:56.420Z,10.65
2023-04-06T18:48:24.075Z,10.36
2023-04-06T18:51:01.747Z,10.51
2023-04-06T18:53:28.915Z,10.44
2023-04-06T18:55:58.563Z,10.25
2023-04-06T18:58:26.176Z,10.16
2023-04-06T19:00:54.181Z,10.01
2023-04-06T19:03:22.150Z,10.08
2023-04-06T19:05:49.898Z,10.26
2023-04-06T19:08:17.598Z,10.16
2023-04-06T19:10:49.648Z,9.89
2023-04-06T19:13:17.775Z,9.77
2023-04-06T19:15:48.247Z,9.87
2023-04-06T19:18:15.558Z,9.60
2023-04-06T19:20:42.504Z,9.76
2023-04-06T19:23:09.880Z,9.74
2023-04-06T19:25:37.346Z,9.72
2023-04-06T19:28:04.896Z,9.62
2023-04-06T19:30:31.820Z,9.70
2023-04-06T19:33:02.741Z,9.80
2023-04-06T19:35:29.922Z,9.64
2023-04-06T19:37:56.651Z,9.72
2023-04-06T19:40:23.542Z,9.67
2023-04-06T19:42:50.385Z,9.67
2023-04-06T19:45:17.120Z,9.69
2023-04-06T19:47:43.943Z,9.92
2023-04-06T19:50:11.546Z,9.89
2023-04-06T19:52:38.379Z,9.97
2023-04-06T19:55:05.386Z,9.80
2023-04-06T19:57:32.104Z,9.66
2023-04-06T19:59:58.777Z,9.38
2023-04-06T20:02:25.841Z,9.64
2023-04-06T20:04:52.536Z,9.65
2023-04-06T20:07:19.699Z,9.51
2023-04-06T20:09:46.905Z,9.71
2023-04-06T20:12:13.528Z,9.49
2023-04-06T20:14:40.382Z,9.46
2023-04-06T20:17:07.141Z,9.58
2023-04-06T20:19:33.927Z,9.75
2023-04-06T20:22:03.237Z,9.85
2023-04-06T20:24:31.332Z,9.66
2023-04-06T20:26:58.136Z,9.62
2023-04-06T20:29:24.868Z,9.76
2023-04-06T20:31:51.967Z,9.75
2023-04-06T20:34:19.082Z,9.87
2023-04-06T20:36:46.146Z,9.95
2023-04-06T20:39:13.052Z,10.12
2023-04-06T20:41:39.748Z,9.99
2023-04-06T20:44:07.152Z,10.01
2023-04-06T20:46:33.874Z,10.18
2023-04-06T20:49:00.892Z,9.93
2023-04-06T20:51:27.665Z,10.00
2023-04-06T20:53:54.455Z,9.87
2023-04-06T20:56:21.903Z,10.02
2023-04-06T20:58:49.063Z,9.99
2023-04-06T21:01:17.652Z,10.10
2023-04-06T21:03:45.284Z,10.02
2023-04-06T21:06:12.570Z,10.08
2023-04-06T21:08:39.423Z,10.00
2023-04-06T21:11:06.635Z,10.02
2023-04-06T21:13:34.158Z,10.21
2023-04-06T21:16:01.650Z,10.04
2023-04-06T21:18:31.413Z,10.17
2023-04-06T21:20:58.293Z,9.92
2023-04-06T21:23:24.992Z,9.51
2023-04-06T21:25:51.997Z,9.67
2023-04-06T21:28:18.967Z,9.77
2023-04-06T21:30:45.805Z,9.90
2023-04-06T21:33:12.618Z,9.89
2023-04-06T21:35:40.752Z,9.86
2023-04-06T21:38:08.209Z,9.65
2023-04-06T21:40:35.492Z,9.66
2023-04-06T21:43:02.593Z,9.67
2023-04-06T21:45:29.375Z,9.82
2023-04-06T21:47:56.064Z,9.59
2023-04-06T21:50:22.799Z,9.57
2023-04-06T21:52:49.677Z,9.63
2023-04-06T21:55:16.382Z,9.37
2023-04-06T21:57:44.407Z,9.42
2023-04-06T22:00:12.008Z,9.70
2023-04-06T22:02:45.661Z,9.67
2023-04-06T22:05:13.095Z,9.74
2023-04-06T22:07:39.953Z,9.82
2023-04-06T22:10:07.334Z,9.91
2023-04-06T22:12:34.179Z,9.71
2023-04-06T22:15:00.910Z,9.62
2023-04-06T22:17:27.732Z,9.43
2023-04-06T22:19:54.441Z,9.52
2023-04-06T22:22:21.270Z,9.39
2023-04-06T22:24:48.214Z,9.37
2023-04-06T22:27:14.997Z,9.41
2023-04-06T22:29:42.725Z,9.68
2023-04-06T22:32:09.706Z,9.65
2023-04-06T22:34:37.264Z,9.60
2023-04-06T22:37:04.639Z,9.63
2023-04-06T22:39:31.476Z,9.62
2023-04-06T22:41:59.450Z,9.50
2023-04-06T22:44:26.305Z,9.34
2023-04-06T22:46:53.371Z,9.41
2023-04-06T22:49:20.354Z,9.27
2023-04-06T22:51:47.136Z,9.31
2023-04-06T22:54:14.475Z,9.68
2023-04-06T22:56:41.515Z,9.87
2023-04-06T22:59:08.271Z,9.77
2023-04-06T23:01:35.008Z,9.70
2023-04-06T23:04:02.095Z,9.82
2023-04-06T23:06:29.015Z,9.60
2023-04-06T23:08:55.686Z,9.64
2023-04-06T23:11:22.498Z,9.49
2023-04-06T23:13:49.186Z,9.43
2023-04-06T23:16:16.052Z,9.58
2023-04-06T23:18:43.040Z,9.58
2023-04-06T23:21:09.792Z,9.43
2023-04-06T23:23:36.529Z,9.62
2023-04-06T23:26:03.131Z,9.65
2023-04-06T23:28:29.824Z,9.55
2023-04-06T23:30:56.614Z,9.68
2023-04-06T23:33:23.327Z,9.52
2023-04-06T23:35:51.006Z,9.53
2023-04-06T23:38:17.828Z,9.55
2023-04-06T23:40:44.886Z,9.55
2023-04-06T23:43:11.528Z,9.48
2023-04-06T23:45:42.896Z,9.55
2023-04-06T23:48:10.161Z,9.52
2023-04-06T23:50:37.615Z,9.55
2023-04-06T23:53:04.707Z,9.57
2023-04-06T23:55:31.601Z,9.64
2023-04-06T23:57:58.891Z,9.44
